Huvudsida
METAR-TAF:

METAR-TAF

Flygplatser :

Talkeetna, Alaska, USA

latitud: 62-19-14N, longitud: 150-05-37W, höjd: 109 m

Aktuellt väderrapport

Denna rapport gjordes för 38 minuter sedan, klockan 21:53 UTC
Vind 3 kt från väst/nordväst
Temperatur -17°C
Fuktighet 41%
Tryck 999 hPa
Sikt: 16.1 km
Klar himmel

METAR: PATK 192153Z 29003KT 10SM CLR M17/M27 A2950 RMK AO2 SLP001 T11671267 $

Tid: 13:31 (22:31 UTC)

Väderprognos

Denna rapport gjordes för 4 timmar och 49 minuter sedan, klockan 17:42 UTC
Prognos gäller från 19 kl. 18 UTC till 20 kl. 18 UTC
Vind 8 kt från nord/nordost
Sikt: 10 km
Klar himmel

TAF: PATK 191742Z 1918/2018 02008KT P6SM SKC

Aktuella väderrapporter och prognoser från 4000 flygplatser (METAR- och TAF-rapporter).

De tillgängliga stationerna syns som gula och röda prickar på kartan.

För musen över prickarna för att se namnen på stationerna.

Klicka sedan för att få väderrapporter och prognoser.

För att ändra kartan: Klicka på de gröna knapparna med ett svart kors på för att zooma in; den gröna knappen med ett streck på för att zooma ut; eller på de gröna pilarna för angränsande kartor.


METAR-TAF: